sensor_id;sensor_type;location;lat;lon;timestamp;pressure;altitude;pressure_sealevel;temperature;humidity
61039;BME280;46919;45.816;3.104;2023-02-22T00:00:36;97683.75;;;6.60;84.00
61039;BME280;46919;45.816;3.104;2023-02-22T00:03:28;97689.50;;;6.50;84.42
61039;BME280;46919;45.816;3.104;2023-02-22T00:06:01;97690.97;;;6.46;84.56
61039;BME280;46919;45.816;3.104;2023-02-22T00:08:34;97696.75;;;6.43;85.19
61039;BME280;46919;45.816;3.104;2023-02-22T00:11:05;97703.34;;;6.47;84.69
61039;BME280;46919;45.816;3.104;2023-02-22T00:13:33;97709.16;;;6.57;83.77
61039;BME280;46919;45.816;3.104;2023-02-22T00:15:59;97712.50;;;6.79;82.98
61039;BME280;46919;45.816;3.104;2023-02-22T00:18:26;97710.66;;;6.93;81.97
61039;BME280;46919;45.816;3.104;2023-02-22T00:20:56;97713.75;;;6.90;82.05
61039;BME280;46919;45.816;3.104;2023-02-22T00:23:25;97713.13;;;6.75;82.66
61039;BME280;46919;45.816;3.104;2023-02-22T00:25:53;97712.25;;;6.61;83.33
61039;BME280;46919;45.816;3.104;2023-02-22T00:28:19;97705.63;;;6.50;83.54
61039;BME280;46919;45.816;3.104;2023-02-22T00:30:45;97706.03;;;6.47;83.92
61039;BME280;46919;45.816;3.104;2023-02-22T00:33:13;97701.47;;;6.41;84.27
61039;BME280;46919;45.816;3.104;2023-02-22T00:35:39;97705.00;;;6.41;84.22
61039;BME280;46919;45.816;3.104;2023-02-22T00:38:06;97702.31;;;6.41;84.90
61039;BME280;46919;45.816;3.104;2023-02-22T00:40:33;97698.38;;;6.44;84.40
61039;BME280;46919;45.816;3.104;2023-02-22T00:43:01;97698.38;;;6.44;84.49
61039;BME280;46919;45.816;3.104;2023-02-22T00:45:28;97699.22;;;6.44;84.65
61039;BME280;46919;45.816;3.104;2023-02-22T00:47:55;97698.38;;;6.44;84.80
61039;BME280;46919;45.816;3.104;2023-02-22T00:50:21;97693.00;;;6.44;84.78
61039;BME280;46919;45.816;3.104;2023-02-22T00:52:48;97700.84;;;6.45;85.16
61039;BME280;46919;45.816;3.104;2023-02-22T00:55:25;97700.03;;;6.45;85.27
61039;BME280;46919;45.816;3.104;2023-02-22T00:57:50;97701.31;;;6.49;85.09
61039;BME280;46919;45.816;3.104;2023-02-22T01:00:22;97702.13;;;6.56;84.63
61039;BME280;46919;45.816;3.104;2023-02-22T01:02:48;97690.97;;;6.59;84.55
61039;BME280;46919;45.816;3.104;2023-02-22T01:05:15;97696.97;;;6.61;84.46
61039;BME280;46919;45.816;3.104;2023-02-22T01:07:42;97693.88;;;6.64;84.40
61039;BME280;46919;45.816;3.104;2023-02-22T01:10:09;97693.47;;;6.61;85.10
61039;BME280;46919;45.816;3.104;2023-02-22T01:12:35;97694.91;;;6.63;84.57
61039;BME280;46919;45.816;3.104;2023-02-22T01:15:02;97693.06;;;6.64;85.02
61039;BME280;46919;45.816;3.104;2023-02-22T01:17:28;97706.06;;;6.74;84.50
61039;BME280;46919;45.816;3.104;2023-02-22T01:19:54;97707.53;;;6.83;84.27
61039;BME280;46919;45.816;3.104;2023-02-22T01:22:20;97694.75;;;6.92;83.89
61039;BME280;46919;45.816;3.104;2023-02-22T01:24:47;97708.38;;;7.03;83.01
61039;BME280;46919;45.816;3.104;2023-02-22T01:27:13;97702.78;;;7.12;82.90
61039;BME280;46919;45.816;3.104;2023-02-22T01:29:39;97704.88;;;7.10;82.99
61039;BME280;46919;45.816;3.104;2023-02-22T01:32:05;97700.94;;;7.05;83.43
61039;BME280;46919;45.816;3.104;2023-02-22T01:34:31;97699.69;;;7.08;83.57
61039;BME280;46919;45.816;3.104;2023-02-22T01:36:57;97698.06;;;7.14;83.15
61039;BME280;46919;45.816;3.104;2023-02-22T01:39:23;97698.88;;;7.14;83.40
61039;BME280;46919;45.816;3.104;2023-02-22T01:41:48;97696.81;;;7.10;83.63
61039;BME280;46919;45.816;3.104;2023-02-22T01:46:44;97696.81;;;7.10;83.76
61039;BME280;46919;45.816;3.104;2023-02-22T01:49:10;97705.47;;;7.12;83.91
61039;BME280;46919;45.816;3.104;2023-02-22T01:51:39;97704.25;;;7.14;83.73
61039;BME280;46919;45.816;3.104;2023-02-22T01:57:23;97683.97;;;7.25;83.26
61039;BME280;46919;45.816;3.104;2023-02-22T01:59:52;97677.13;;;7.29;82.73
61039;BME280;46919;45.816;3.104;2023-02-22T02:02:20;97679.00;;;7.35;82.52
61039;BME280;46919;45.816;3.104;2023-02-22T02:04:51;97674.03;;;7.39;82.58
61039;BME280;46919;45.816;3.104;2023-02-22T02:07:19;97675.88;;;7.45;82.43
61039;BME280;46919;45.816;3.104;2023-02-22T02:12:22;97667.38;;;7.55;81.95
61039;BME280;46919;45.816;3.104;2023-02-22T02:14:48;97659.09;;;7.56;81.51
61039;BME280;46919;45.816;3.104;2023-02-22T02:17:15;97665.72;;;7.54;82.00
61039;BME280;46919;45.816;3.104;2023-02-22T02:20:09;97662.00;;;7.48;82.45
61039;BME280;46919;45.816;3.104;2023-02-22T02:34:23;97667.34;;;7.68;81.03
61039;BME280;46919;45.816;3.104;2023-02-22T02:42:54;97666.56;;;8.06;78.06
61039;BME280;46919;45.816;3.104;2023-02-22T02:45:29;97663.84;;;8.13;78.05
61039;BME280;46919;45.816;3.104;2023-02-22T02:47:58;97669.44;;;8.11;78.07
61039;BME280;46919;45.816;3.104;2023-02-22T02:50:36;97669.69;;;8.03;78.45
61039;BME280;46919;45.816;3.104;2023-02-22T02:53:04;97665.16;;;7.97;78.81
61039;BME280;46919;45.816;3.104;2023-02-22T02:55:33;97668.88;;;7.96;79.36
61039;BME280;46919;45.816;3.104;2023-02-22T02:58:04;97658.16;;;7.89;79.54
61039;BME280;46919;45.816;3.104;2023-02-22T03:00:33;97667.28;;;7.88;79.87
61039;BME280;46919;45.816;3.104;2023-02-22T03:08:12;97645.75;;;7.82;80.72
61039;BME280;46919;45.816;3.104;2023-02-22T03:16:03;97651.13;;;7.82;81.45
61039;BME280;46919;45.816;3.104;2023-02-22T03:24:08;97651.56;;;7.78;81.99
61039;BME280;46919;45.816;3.104;2023-02-22T03:26:45;97649.50;;;7.80;81.73
61039;BME280;46919;45.816;3.104;2023-02-22T03:29:13;97650.94;;;7.83;81.30
61039;BME280;46919;45.816;3.104;2023-02-22T03:31:47;97642.41;;;7.93;80.46
61039;BME280;46919;45.816;3.104;2023-02-22T03:34:16;97649.25;;;7.89;81.40
61039;BME280;46919;45.816;3.104;2023-02-22T03:36:55;97646.97;;;7.92;80.42
61039;BME280;46919;45.816;3.104;2023-02-22T03:42:07;97637.81;;;8.00;79.84
61039;BME280;46919;45.816;3.104;2023-02-22T03:44:34;97642.13;;;8.08;79.75
61039;BME280;46919;45.816;3.104;2023-02-22T03:47:05;97629.06;;;8.11;79.11
61039;BME280;46919;45.816;3.104;2023-02-22T03:49:35;97642.56;;;8.05;79.69
61039;BME280;46919;45.816;3.104;2023-02-22T03:52:03;97642.34;;;8.06;79.79
61039;BME280;46919;45.816;3.104;2023-02-22T03:54:30;97635.75;;;8.02;79.67
61039;BME280;46919;45.816;3.104;2023-02-22T03:56:59;97638.25;;;7.97;79.76
61039;BME280;46919;45.816;3.104;2023-02-22T03:59:29;97633.28;;;7.94;79.87
61039;BME280;46919;45.816;3.104;2023-02-22T04:01:55;97637.66;;;7.95;79.76
61039;BME280;46919;45.816;3.104;2023-02-22T04:04:22;97626.25;;;7.93;80.03
61039;BME280;46919;45.816;3.104;2023-02-22T04:06:48;97629.41;;;7.90;80.11
61039;BME280;46919;45.816;3.104;2023-02-22T04:09:15;97629.41;;;7.90;80.07
61039;BME280;46919;45.816;3.104;2023-02-22T04:11:41;97643.28;;;7.87;80.45
61039;BME280;46919;45.816;3.104;2023-02-22T04:14:07;97633.34;;;7.87;80.73
61039;BME280;46919;45.816;3.104;2023-02-22T04:16:32;97646.19;;;7.85;80.70
61039;BME280;46919;45.816;3.104;2023-02-22T04:18:58;97641.66;;;7.79;80.73
61039;BME280;46919;45.816;3.104;2023-02-22T04:21:23;97644.56;;;7.77;81.14
61039;BME280;46919;45.816;3.104;2023-02-22T04:23:49;97635.03;;;7.75;81.14
61039;BME280;46919;45.816;3.104;2023-02-22T04:26:15;97638.75;;;7.74;80.71
61039;BME280;46919;45.816;3.104;2023-02-22T04:28:40;97644.97;;;7.74;81.11
61039;BME280;46919;45.816;3.104;2023-02-22T04:31:06;97642.72;;;7.71;81.50
61039;BME280;46919;45.816;3.104;2023-02-22T04:33:31;97636.31;;;7.66;82.16
61039;BME280;46919;45.816;3.104;2023-02-22T04:35:57;97646.25;;;7.65;82.29
61039;BME280;46919;45.816;3.104;2023-02-22T04:38:24;97659.47;;;7.67;82.10
61039;BME280;46919;45.816;3.104;2023-02-22T04:40:53;97660.28;;;7.67;82.27
61039;BME280;46919;45.816;3.104;2023-02-22T04:43:19;97666.53;;;7.68;82.50
61039;BME280;46919;45.816;3.104;2023-02-22T04:45:44;97660.72;;;7.64;82.70
61039;BME280;46919;45.816;3.104;2023-02-22T04:48:10;97669.84;;;7.63;83.46
61039;BME280;46919;45.816;3.104;2023-02-22T04:50:36;97653.72;;;7.63;83.84
61039;BME280;46919;45.816;3.104;2023-02-22T04:53:01;97668.19;;;7.62;84.39
61039;BME280;46919;45.816;3.104;2023-02-22T04:55:27;97675.00;;;7.58;85.76
61039;BME280;46919;45.816;3.104;2023-02-22T04:57:53;97680.00;;;7.54;86.06
61039;BME280;46919;45.816;3.104;2023-02-22T05:00:20;97678.78;;;7.50;87.09
61039;BME280;46919;45.816;3.104;2023-02-22T05:02:49;97671.53;;;7.51;86.75
61039;BME280;46919;45.816;3.104;2023-02-22T05:05:19;97675.63;;;7.53;86.71
61039;BME280;46919;45.816;3.104;2023-02-22T05:07:48;97684.56;;;7.54;86.79
61039;BME280;46919;45.816;3.104;2023-02-22T05:10:15;97693.66;;;7.53;87.63
61039;BME280;46919;45.816;3.104;2023-02-22T05:12:40;97689.53;;;7.50;88.35
61039;BME280;46919;45.816;3.104;2023-02-22T05:15:06;97704.22;;;7.48;88.99
61039;BME280;46919;45.816;3.104;2023-02-22T05:17:33;97700.72;;;7.47;89.36
61039;BME280;46919;45.816;3.104;2023-02-22T05:19:59;97697.16;;;7.47;90.08
61039;BME280;46919;45.816;3.104;2023-02-22T05:22:24;97715.78;;;7.55;88.99
61039;BME280;46919;45.816;3.104;2023-02-22T05:24:50;97702.13;;;7.56;88.13
61039;BME280;46919;45.816;3.104;2023-02-22T05:27:18;97677.72;;;7.51;89.28
61039;BME280;46919;45.816;3.104;2023-02-22T05:29:44;97692.19;;;7.57;88.82
61039;BME280;46919;45.816;3.104;2023-02-22T05:32:10;97695.69;;;7.64;88.44
61039;BME280;46919;45.816;3.104;2023-02-22T05:34:38;97679.38;;;7.59;88.44
61039;BME280;46919;45.816;3.104;2023-02-22T05:37:04;97687.63;;;7.64;88.12
61039;BME280;46919;45.816;3.104;2023-02-22T05:39:29;97688.88;;;7.61;89.02
61039;BME280;46919;45.816;3.104;2023-02-22T05:41:55;97681.03;;;7.60;88.98
61039;BME280;46919;45.816;3.104;2023-02-22T05:44:21;97677.50;;;7.59;89.72
61039;BME280;46919;45.816;3.104;2023-02-22T05:46:46;97682.06;;;7.59;89.77
61039;BME280;46919;45.816;3.104;2023-02-22T05:49:12;97681.22;;;7.58;89.84
61039;BME280;46919;45.816;3.104;2023-02-22T05:51:37;97682.25;;;7.57;90.53
61039;BME280;46919;45.816;3.104;2023-02-22T05:54:03;97692.19;;;7.57;90.93
61039;BME280;46919;45.816;3.104;2023-02-22T05:56:28;97676.09;;;7.50;91.44
61039;BME280;46919;45.816;3.104;2023-02-22T05:58:55;97676.31;;;7.49;91.39
61039;BME280;46919;45.816;3.104;2023-02-22T06:01:21;97685.59;;;7.53;91.15
61039;BME280;46919;45.816;3.104;2023-02-22T06:03:48;97679.19;;;7.40;92.18
61039;BME280;46919;45.816;3.104;2023-02-22T06:06:14;97675.50;;;7.35;93.08
61039;BME280;46919;45.816;3.104;2023-02-22T06:08:40;97669.50;;;7.33;93.89
61039;BME280;46919;45.816;3.104;2023-02-22T06:11:05;97669.91;;;7.30;94.50
61039;BME280;46919;45.816;3.104;2023-02-22T06:13:31;97675.72;;;7.27;95.07
61039;BME280;46919;45.816;3.104;2023-02-22T06:15:57;97669.91;;;7.23;96.67
61039;BME280;46919;45.816;3.104;2023-02-22T06:18:23;97663.09;;;7.20;97.35
61039;BME280;46919;45.816;3.104;2023-02-22T06:20:51;97675.09;;;7.18;97.58
61039;BME280;46919;45.816;3.104;2023-02-22T06:23:16;97673.63;;;7.15;98.19
61039;BME280;46919;45.816;3.104;2023-02-22T06:25:41;97676.56;;;7.14;99.19
61039;BME280;46919;45.816;3.104;2023-02-22T06:28:07;97682.75;;;7.14;98.98
61039;BME280;46919;45.816;3.104;2023-02-22T06:30:33;97673.88;;;7.14;99.05
61039;BME280;46919;45.816;3.104;2023-02-22T06:32:58;97681.50;;;7.17;99.62
61039;BME280;46919;45.816;3.104;2023-02-22T06:35:24;97675.28;;;7.16;99.98
61039;BME280;46919;45.816;3.104;2023-02-22T06:37:49;97679.44;;;7.19;99.45
61039;BME280;46919;45.816;3.104;2023-02-22T06:40:15;97674.88;;;7.19;99.68
61039;BME280;46919;45.816;3.104;2023-02-22T06:42:41;97679.44;;;7.12;100.00
61039;BME280;46919;45.816;3.104;2023-02-22T06:45:07;97683.78;;;7.13;100.00
61039;BME280;46919;45.816;3.104;2023-02-22T06:47:36;97691.81;;;7.20;100.00
61039;BME280;46919;45.816;3.104;2023-02-22T06:50:01;97691.63;;;7.21;100.00
61039;BME280;46919;45.816;3.104;2023-02-22T06:52:27;97694.31;;;7.21;100.00
61039;BME280;46919;45.816;3.104;2023-02-22T06:54:52;97694.94;;;7.17;100.00
61039;BME280;46919;45.816;3.104;2023-02-22T06:57:17;97698.66;;;7.16;100.00
61039;BME280;46919;45.816;3.104;2023-02-22T06:59:43;97698.88;;;7.21;100.00
61039;BME280;46919;45.816;3.104;2023-02-22T07:02:12;97706.72;;;7.22;100.00
61039;BME280;46919;45.816;3.104;2023-02-22T07:04:38;97700.53;;;7.22;100.00
61039;BME280;46919;45.816;3.104;2023-02-22T07:07:04;97706.31;;;7.25;100.00
61039;BME280;46919;45.816;3.104;2023-02-22T07:09:30;97711.47;;;7.27;100.00
61039;BME280;46919;45.816;3.104;2023-02-22T07:11:56;97716.25;;;7.25;100.00
61039;BME280;46919;45.816;3.104;2023-02-22T07:14:21;97719.94;;;7.24;100.00
61039;BME280;46919;45.816;3.104;2023-02-22T07:16:47;97715.00;;;7.21;100.00
61039;BME280;46919;45.816;3.104;2023-02-22T07:19:12;97713.97;;;7.22;100.00
61039;BME280;46919;45.816;3.104;2023-02-22T07:21:38;97719.13;;;7.23;100.00
61039;BME280;46919;45.816;3.104;2023-02-22T07:24:04;97725.31;;;7.24;100.00
61039;BME280;46919;45.816;3.104;2023-02-22T07:26:29;97719.75;;;7.25;100.00
61039;BME280;46919;45.816;3.104;2023-02-22T07:28:55;97728.00;;;7.31;100.00
61039;BME280;46919;45.816;3.104;2023-02-22T07:31:20;97723.69;;;7.36;100.00
61039;BME280;46919;45.816;3.104;2023-02-22T07:33:46;97724.50;;;7.37;100.00
61039;BME280;46919;45.816;3.104;2023-02-22T07:36:12;97728.44;;;7.41;100.00
61039;BME280;46919;45.816;3.104;2023-02-22T07:38:43;97728.63;;;7.39;100.00
61039;BME280;46919;45.816;3.104;2023-02-22T07:41:09;97727.59;;;7.40;100.00
61039;BME280;46919;45.816;3.104;2023-02-22T07:43:35;97731.13;;;7.41;100.00
61039;BME280;46919;45.816;3.104;2023-02-22T07:46:01;97738.13;;;7.42;100.00
61039;BME280;46919;45.816;3.104;2023-02-22T07:48:29;97726.16;;;7.44;100.00
61039;BME280;46919;45.816;3.104;2023-02-22T07:50:55;97727.38;;;7.49;100.00
61039;BME280;46919;45.816;3.104;2023-02-22T07:53:26;97721.16;;;7.55;100.00
61039;BME280;46919;45.816;3.104;2023-02-22T07:55:55;97727.78;;;7.59;100.00
61039;BME280;46919;45.816;3.104;2023-02-22T07:58:28;97729.63;;;7.65;100.00
61039;BME280;46919;45.816;3.104;2023-02-22T08:00:53;97728.19;;;7.69;100.00
61039;BME280;46919;45.816;3.104;2023-02-22T08:03:21;97732.09;;;7.73;100.00
61039;BME280;46919;45.816;3.104;2023-02-22T08:05:51;97730.63;;;7.77;100.00
61039;BME280;46919;45.816;3.104;2023-02-22T08:08:17;97732.28;;;7.78;100.00
61039;BME280;46919;45.816;3.104;2023-02-22T08:10:42;97735.19;;;7.84;100.00
61039;BME280;46919;45.816;3.104;2023-02-22T08:13:08;97735.78;;;7.86;100.00
61039;BME280;46919;45.816;3.104;2023-02-22T08:15:36;97732.25;;;7.92;100.00
61039;BME280;46919;45.816;3.104;2023-02-22T08:18:05;97739.06;;;7.94;100.00
61039;BME280;46919;45.816;3.104;2023-02-22T08:20:34;97735.56;;;7.94;100.00
61039;BME280;46919;45.816;3.104;2023-02-22T08:22:59;97734.72;;;8.00;100.00
61039;BME280;46919;45.816;3.104;2023-02-22T08:25:27;97739.25;;;8.06;100.00
61039;BME280;46919;45.816;3.104;2023-02-22T08:27:56;97740.66;;;8.15;100.00
61039;BME280;46919;45.816;3.104;2023-02-22T08:30:24;97743.31;;;8.22;100.00
61039;BME280;46919;45.816;3.104;2023-02-22T08:32:50;97740.38;;;8.30;100.00
61039;BME280;46919;45.816;3.104;2023-02-22T08:35:18;97740.34;;;8.37;100.00
61039;BME280;46919;45.816;3.104;2023-02-22T08:37:46;97742.00;;;8.45;100.00
61039;BME280;46919;45.816;3.104;2023-02-22T08:40:14;97743.25;;;8.49;100.00
61039;BME280;46919;45.816;3.104;2023-02-22T08:42:42;97741.97;;;8.51;100.00
61039;BME280;46919;45.816;3.104;2023-02-22T08:45:07;97742.59;;;8.54;100.00
61039;BME280;46919;45.816;3.104;2023-02-22T08:47:34;97747.72;;;8.62;100.00
61039;BME280;46919;45.816;3.104;2023-02-22T08:49:59;97750.59;;;8.67;100.00
61039;BME280;46919;45.816;3.104;2023-02-22T08:52:25;97740.41;;;8.69;100.00
61039;BME280;46919;45.816;3.104;2023-02-22T08:54:50;97736.88;;;8.75;100.00
61039;BME280;46919;45.816;3.104;2023-02-22T08:57:15;97731.69;;;8.80;100.00
61039;BME280;46919;45.816;3.104;2023-02-22T08:59:41;97736.59;;;8.90;100.00
61039;BME280;46919;45.816;3.104;2023-02-22T09:02:17;97735.06;;;9.01;100.00
61039;BME280;46919;45.816;3.104;2023-02-22T09:04:43;97730.38;;;9.15;100.00
61039;BME280;46919;45.816;3.104;2023-02-22T09:07:09;97729.00;;;9.31;100.00
61039;BME280;46919;45.816;3.104;2023-02-22T09:09:35;97729.13;;;9.42;100.00
61039;BME280;46919;45.816;3.104;2023-02-22T09:12:01;97729.19;;;9.54;100.00
61039;BME280;46919;45.816;3.104;2023-02-22T09:14:26;97723.69;;;9.68;100.00
61039;BME280;46919;45.816;3.104;2023-02-22T09:16:52;97726.47;;;9.79;100.00
61039;BME280;46919;45.816;3.104;2023-02-22T09:19:17;97731.75;;;9.93;100.00
61039;BME280;46919;45.816;3.104;2023-02-22T09:21:43;97729.69;;;10.07;100.00
61039;BME280;46919;45.816;3.104;2023-02-22T09:24:08;97725.88;;;10.14;100.00
61039;BME280;46919;45.816;3.104;2023-02-22T09:26:35;97718.97;;;10.19;100.00
61039;BME280;46919;45.816;3.104;2023-02-22T09:29:04;97723.53;;;10.18;100.00
61039;BME280;46919;45.816;3.104;2023-02-22T09:31:37;97727.75;;;10.14;100.00
61039;BME280;46919;45.816;3.104;2023-02-22T09:34:04;97731.22;;;10.03;100.00
61039;BME280;46919;45.816;3.104;2023-02-22T09:36:41;97728.59;;;9.96;100.00
61039;BME280;46919;45.816;3.104;2023-02-22T09:39:07;97731.97;;;9.91;100.00
61039;BME280;46919;45.816;3.104;2023-02-22T09:44:34;97728.19;;;9.74;100.00
61039;BME280;46919;45.816;3.104;2023-02-22T09:47:03;97728.03;;;9.69;100.00
61039;BME280;46919;45.816;3.104;2023-02-22T09:52:10;97722.31;;;9.58;100.00
61039;BME280;46919;45.816;3.104;2023-02-22T09:54:43;97727.72;;;9.58;100.00
61039;BME280;46919;45.816;3.104;2023-02-22T09:57:12;97731.31;;;9.52;100.00
61039;BME280;46919;45.816;3.104;2023-02-22T09:59:50;97728.16;;;9.55;100.00
61039;BME280;46919;45.816;3.104;2023-02-22T10:02:33;97730.28;;;9.53;100.00
61039;BME280;46919;45.816;3.104;2023-02-22T10:05:10;97729.19;;;9.54;100.00
61039;BME280;46919;45.816;3.104;2023-02-22T10:07:51;97723.81;;;9.54;100.00
61039;BME280;46919;45.816;3.104;2023-02-22T10:10:20;97724.25;;;9.51;100.00
61039;BME280;46919;45.816;3.104;2023-02-22T10:18:54;97712.09;;;9.42;100.00
61039;BME280;46919;45.816;3.104;2023-02-22T10:21:33;97713.16;;;9.41;100.00
61039;BME280;46919;45.816;3.104;2023-02-22T10:25:02;97714.19;;;9.40;100.00
61039;BME280;46919;45.816;3.104;2023-02-22T10:26:56;97717.31;;;9.37;100.00
61039;BME280;46919;45.816;3.104;2023-02-22T10:29:36;97711.50;;;9.40;100.00
61039;BME280;46919;45.816;3.104;2023-02-22T10:32:07;97712.94;;;9.42;100.00
61039;BME280;46919;45.816;3.104;2023-02-22T10:34:56;97720.19;;;9.42;100.00
61039;BME280;46919;45.816;3.104;2023-02-22T10:37:33;97715.19;;;9.46;100.00
61039;BME280;46919;45.816;3.104;2023-02-22T10:40:12;97717.88;;;9.46;100.00
61039;BME280;46919;45.816;3.104;2023-02-22T10:42:39;97711.88;;;9.43;100.00
61039;BME280;46919;45.816;3.104;2023-02-22T10:45:13;97710.84;;;9.45;100.00
61039;BME280;46919;45.816;3.104;2023-02-22T10:47:43;97702.97;;;9.43;100.00
61039;BME280;46919;45.816;3.104;2023-02-22T10:50:11;97703.78;;;9.43;100.00
61039;BME280;46919;45.816;3.104;2023-02-22T10:52:39;97707.31;;;9.44;100.00
61039;BME280;46919;45.816;3.104;2023-02-22T10:55:04;97707.31;;;9.44;100.00
61039;BME280;46919;45.816;3.104;2023-02-22T10:57:36;97702.75;;;9.45;100.00
61039;BME280;46919;45.816;3.104;2023-02-22T11:00:21;97703.09;;;9.48;100.00
61039;BME280;46919;45.816;3.104;2023-02-22T11:02:57;97708.50;;;9.48;100.00
61039;BME280;46919;45.816;3.104;2023-02-22T11:10:42;97703.88;;;9.55;100.00
61039;BME280;46919;45.816;3.104;2023-02-22T11:13:29;97703.00;;;9.61;100.00
61039;BME280;46919;45.816;3.104;2023-02-22T11:16:02;97704.19;;;9.66;100.00
61039;BME280;46919;45.816;3.104;2023-02-22T11:18:41;97701.22;;;9.74;100.00
61039;BME280;46919;45.816;3.104;2023-02-22T11:21:09;97709.00;;;9.82;100.00
61039;BME280;46919;45.816;3.104;2023-02-22T11:23:38;97709.28;;;9.92;100.00
61039;BME280;46919;45.816;3.104;2023-02-22T11:28:33;97696.25;;;10.08;100.00
61039;BME280;46919;45.816;3.104;2023-02-22T11:31:22;97703.81;;;10.18;100.00
61039;BME280;46919;45.816;3.104;2023-02-22T11:34:00;97704.13;;;10.28;100.00
61039;BME280;46919;45.816;3.104;2023-02-22T11:36:36;97699.69;;;10.33;100.00
61039;BME280;46919;45.816;3.104;2023-02-22T11:39:10;97706.22;;;10.44;100.00
61039;BME280;46919;45.816;3.104;2023-02-22T11:41:45;97689.56;;;10.59;100.00
61039;BME280;46919;45.816;3.104;2023-02-22T11:46:48;97685.31;;;10.94;100.00
61039;BME280;46919;45.816;3.104;2023-02-22T11:49:13;97683.25;;;11.08;100.00
61039;BME280;46919;45.816;3.104;2023-02-22T11:54:46;97677.00;;;11.19;100.00
61039;BME280;46919;45.816;3.104;2023-02-22T11:57:37;97673.50;;;11.42;100.00
61039;BME280;46919;45.816;3.104;2023-02-22T12:20:00;97635.31;;;12.77;99.81
61039;BME280;46919;45.816;3.104;2023-02-22T12:22:33;97637.69;;;13.08;98.79
61039;BME280;46919;45.816;3.104;2023-02-22T12:25:05;97622.22;;;13.08;98.78
61039;BME280;46919;45.816;3.104;2023-02-22T12:27:43;97631.03;;;13.15;98.44
61039;BME280;46919;45.816;3.104;2023-02-22T12:30:19;97620.00;;;13.05;97.69
61039;BME280;46919;45.816;3.104;2023-02-22T12:32:51;97626.38;;;12.77;96.75
61039;BME280;46919;45.816;3.104;2023-02-22T12:35:36;97620.34;;;12.58;96.36
61039;BME280;46919;45.816;3.104;2023-02-22T12:43:18;97623.84;;;12.12;96.79
61039;BME280;46919;45.816;3.104;2023-02-22T12:46:07;97620.88;;;12.14;95.68
61039;BME280;46919;45.816;3.104;2023-02-22T12:48:47;97617.25;;;12.08;95.06
61039;BME280;46919;45.816;3.104;2023-02-22T12:54:24;97615.88;;;11.94;95.29
61039;BME280;46919;45.816;3.104;2023-02-22T12:57:04;97612.47;;;11.87;95.46
61039;BME280;46919;45.816;3.104;2023-02-22T13:02:27;97610.81;;;11.86;95.76
61039;BME280;46919;45.816;3.104;2023-02-22T13:04:55;97612.44;;;11.99;95.26
61039;BME280;46919;45.816;3.104;2023-02-22T13:10:15;97606.16;;;12.10;95.03
61039;BME280;46919;45.816;3.104;2023-02-22T13:20:52;97589.97;;;12.27;94.84
61039;BME280;46919;45.816;3.104;2023-02-22T13:26:09;97589.59;;;12.52;94.55
61039;BME280;46919;45.816;3.104;2023-02-22T13:28:45;97585.19;;;12.63;94.38
61039;BME280;46919;45.816;3.104;2023-02-22T13:31:47;97578.78;;;12.69;94.09
61039;BME280;46919;45.816;3.104;2023-02-22T13:35:11;97576.56;;;12.66;94.27
61039;BME280;46919;45.816;3.104;2023-02-22T13:52:49;97560.69;;;12.92;92.43
61039;BME280;46919;45.816;3.104;2023-02-22T13:55:22;97561.31;;;12.99;91.23
61039;BME280;46919;45.816;3.104;2023-02-22T13:58:02;97559.28;;;13.06;90.18
61039;BME280;46919;45.816;3.104;2023-02-22T14:05:45;97552.06;;;12.95;89.68
61039;BME280;46919;45.816;3.104;2023-02-22T14:13:08;97553.28;;;12.70;90.29
61039;BME280;46919;45.816;3.104;2023-02-22T14:15:33;97554.03;;;12.65;90.32
61039;BME280;46919;45.816;3.104;2023-02-22T14:18:15;97552.97;;;12.66;90.59
61039;BME280;46919;45.816;3.104;2023-02-22T14:20:41;97546.72;;;12.66;91.02
61039;BME280;46919;45.816;3.104;2023-02-22T14:23:27;97547.78;;;12.65;91.57
61039;BME280;46919;45.816;3.104;2023-02-22T14:31:12;97538.06;;;13.03;89.63
61039;BME280;46919;45.816;3.104;2023-02-22T14:36:48;97532.81;;;13.80;83.69
61039;BME280;46919;45.816;3.104;2023-02-22T14:42:42;97528.53;;;14.65;79.06
61039;BME280;46919;45.816;3.104;2023-02-22T14:48:04;97527.22;;;15.16;73.20
61039;BME280;46919;45.816;3.104;2023-02-22T14:53:35;97508.78;;;15.28;66.46
61039;BME280;46919;45.816;3.104;2023-02-22T14:56:07;97517.34;;;14.99;67.81
61039;BME280;46919;45.816;3.104;2023-02-22T14:59:10;97530.25;;;14.77;65.84
61039;BME280;46919;45.816;3.104;2023-02-22T15:01:37;97517.22;;;14.52;64.45
61039;BME280;46919;45.816;3.104;2023-02-22T15:04:22;97517.00;;;14.58;65.53
61039;BME280;46919;45.816;3.104;2023-02-22T15:06:49;97519.28;;;14.66;65.86
61039;BME280;46919;45.816;3.104;2023-02-22T15:09:27;97520.66;;;14.69;64.74
61039;BME280;46919;45.816;3.104;2023-02-22T15:14:30;97513.06;;;15.14;64.07
61039;BME280;46919;45.816;3.104;2023-02-22T15:17:04;97526.47;;;14.83;63.70
61039;BME280;46919;45.816;3.104;2023-02-22T15:19:36;97517.44;;;14.45;63.68
61039;BME280;46919;45.816;3.104;2023-02-22T15:22:03;97513.84;;;14.39;64.29
61039;BME280;46919;45.816;3.104;2023-02-22T15:24:34;97510.44;;;14.22;64.20
61039;BME280;46919;45.816;3.104;2023-02-22T15:27:14;97516.28;;;14.36;64.32
61039;BME280;46919;45.816;3.104;2023-02-22T15:29:42;97513.84;;;14.07;64.24
61039;BME280;46919;45.816;3.104;2023-02-22T15:32:38;97517.63;;;13.79;64.84
61039;BME280;46919;45.816;3.104;2023-02-22T15:35:23;97515.53;;;13.64;65.27
61039;BME280;46919;45.816;3.104;2023-02-22T15:38:05;97520.53;;;13.72;64.24
61039;BME280;46919;45.816;3.104;2023-02-22T15:40:32;97515.63;;;13.96;63.65
61039;BME280;46919;45.816;3.104;2023-02-22T15:43:04;97516.84;;;13.83;63.82
61039;BME280;46919;45.816;3.104;2023-02-22T15:45:33;97518.84;;;13.66;64.30
61039;BME280;46919;45.816;3.104;2023-02-22T15:47:59;97512.66;;;13.48;64.22
61039;BME280;46919;45.816;3.104;2023-02-22T15:50:30;97522.88;;;13.41;64.75
61039;BME280;46919;45.816;3.104;2023-02-22T15:55:36;97517.69;;;13.22;65.30
61039;BME280;46919;45.816;3.104;2023-02-22T15:58:20;97522.19;;;13.12;65.45
61039;BME280;46919;45.816;3.104;2023-02-22T16:01:13;97520.22;;;13.07;65.58